Time;durP1;ratioP1;P1;durP2;ratioP2;P2;SDS_P1;SDS_P2;PMS_P1;PMS_P2;Temp;Humidity;BMP_temperature;BMP_pressure;BME280_temperature;BME280_humidity;BME280_pressure;Samples;Min_cycle;Max_cycle;Signal;HPM_P1;HPM_P2
2021/01/19 00:01:46;;;;;;;20.53;9.07;;;;;;;;;;5056955;28;20521;-72
2021/01/19 00:04:13;;;;;;;20.30;8.97;;;;;;;;;;5053669;28;20901;-72
2021/01/19 00:06:40;;;;;;;21.90;11.07;;;;;;;;;;5056403;28;20945;-72
2021/01/19 00:09:07;;;;;;;25.17;10.00;;;;;;;;;;5057028;28;20537;-72
2021/01/19 00:11:34;;;;;;;25.80;8.97;;;;;;;;;;5055881;28;20497;-72
2021/01/19 00:14:02;;;;;;;21.77;10.23;;;;;;;;;;5056085;28;20532;-72
2021/01/19 00:16:28;;;;;;;20.93;10.23;;;;;;;;;;5056096;28;20461;-72
2021/01/19 00:18:55;;;;;;;17.00;8.90;;;;;;;;;;5056378;28;20485;-72
2021/01/19 00:21:22;;;;;;;18.97;9.20;;;;;;;;;;5056166;28;20475;-72
2021/01/19 00:23:49;;;;;;;28.07;11.33;;;;;;;;;;5055880;28;20468;-72
2021/01/19 00:26:16;;;;;;;25.20;9.83;;;;;;;;;;5058852;28;20902;-72
2021/01/19 00:28:43;;;;;;;25.03;10.37;;;;;;;;;;5059748;28;20462;-72
2021/01/19 00:31:11;;;;;;;24.37;9.67;;;;;;;;;;5058722;28;20537;-72
2021/01/19 00:33:39;;;;;;;19.37;8.73;;;;;;;;;;5060736;28;20449;-72
2021/01/19 00:36:06;;;;;;;25.60;10.80;;;;;;;;;;5058368;28;20915;-72
2021/01/19 00:38:33;;;;;;;23.77;10.33;;;;;;;;;;5047677;28;20583;-72
2021/01/19 00:40:59;;;;;;;19.73;9.87;;;;;;;;;;5059709;28;20803;-72
2021/01/19 00:43:27;;;;;;;28.30;8.87;;;;;;;;;;5058754;28;20548;-72
2021/01/19 00:45:54;;;;;;;23.20;9.83;;;;;;;;;;5059110;28;20568;-72
2021/01/19 00:48:22;;;;;;;26.10;11.63;;;;;;;;;;5059194;28;20458;-72
2021/01/19 00:50:49;;;;;;;22.07;10.17;;;;;;;;;;5059946;28;20449;-72
2021/01/19 00:53:16;;;;;;;25.50;11.53;;;;;;;;;;5058237;28;20893;-72
2021/01/19 00:55:42;;;;;;;23.33;10.70;;;;;;;;;;5059565;28;20479;-72
2021/01/19 00:58:09;;;;;;;19.77;9.47;;;;;;;;;;5057994;28;20481;-72
2021/01/19 01:00:36;;;;;;;23.57;10.70;;;;;;;;;;5059120;28;20496;-72
2021/01/19 01:03:03;;;;;;;22.43;10.00;;;;;;;;;;5057314;28;20651;-72
2021/01/19 01:05:31;;;;;;;24.90;10.80;;;;;;;;;;5059170;28;20463;-72
2021/01/19 01:08:01;;;;;;;28.47;11.40;;;;;;;;;;5058709;28;20454;-72
2021/01/19 01:10:29;;;;;;;24.23;11.27;;;;;;;;;;5058824;28;20500;-72
2021/01/19 01:12:55;;;;;;;28.00;11.30;;;;;;;;;;5058898;28;20467;-72
2021/01/19 01:15:29;;;;;;;35.43;12.47;;;;;;;;;;5058777;28;20489;-72
2021/01/19 01:17:56;;;;;;;23.93;11.33;;;;;;;;;;5058879;28;20487;-72
2021/01/19 01:20:23;;;;;;;22.67;9.13;;;;;;;;;;5059432;28;20500;-72
2021/01/19 01:22:51;;;;;;;35.60;11.07;;;;;;;;;;5057539;28;20872;-72
2021/01/19 01:25:19;;;;;;;28.80;11.40;;;;;;;;;;5048588;28;20470;-72
2021/01/19 01:27:46;;;;;;;24.97;10.67;;;;;;;;;;5057145;28;20524;-72
2021/01/19 01:30:16;;;;;;;19.53;9.30;;;;;;;;;;5059378;28;20476;-72
2021/01/19 01:32:45;;;;;;;24.53;9.60;;;;;;;;;;5056835;28;20484;-72
2021/01/19 01:35:12;;;;;;;18.97;9.40;;;;;;;;;;5059207;28;20843;-72
2021/01/19 01:37:49;;;;;;;20.77;9.83;;;;;;;;;;5056688;28;20485;-72
2021/01/19 01:40:18;;;;;;;28.77;10.27;;;;;;;;;;5059280;28;20533;-72
2021/01/19 01:42:48;;;;;;;24.97;10.77;;;;;;;;;;5057072;28;20527;-72
2021/01/19 01:45:18;;;;;;;28.07;9.87;;;;;;;;;;5058844;28;20876;-72
2021/01/19 01:47:45;;;;;;;30.83;10.70;;;;;;;;;;5057405;28;20449;-72
2021/01/19 01:50:13;;;;;;;21.33;10.47;;;;;;;;;;5058950;28;20445;-72
2021/01/19 01:52:40;;;;;;;23.67;10.77;;;;;;;;;;5058690;28;20491;-71
2021/01/19 01:55:08;;;;;;;25.90;10.40;;;;;;;;;;5060880;28;21040;-72
2021/01/19 01:57:38;;;;;;;22.40;10.67;;;;;;;;;;5059044;28;20485;-72
2021/01/19 02:00:06;;;;;;;23.10;10.87;;;;;;;;;;5056211;28;20489;-72
2021/01/19 02:02:33;;;;;;;19.67;9.70;;;;;;;;;;5059151;28;20879;-72
2021/01/19 02:05:00;;;;;;;26.47;10.77;;;;;;;;;;5058864;28;21079;-72
2021/01/19 02:07:32;;;;;;;24.43;10.40;;;;;;;;;;5057615;28;20540;-72
2021/01/19 02:10:05;;;;;;;29.60;11.17;;;;;;;;;;5058969;28;20446;-72
2021/01/19 02:12:36;;;;;;;31.53;11.07;;;;;;;;;;5057542;28;20540;-72
2021/01/19 02:15:06;;;;;;;25.20;11.30;;;;;;;;;;5055869;28;21000;-72
2021/01/19 02:17:39;;;;;;;23.40;11.63;;;;;;;;;;5056757;28;20564;-72
2021/01/19 02:20:36;;;;;;;20.33;10.27;;;;;;;;;;5046296;28;20487;-72
2021/01/19 02:23:14;;;;;;;27.03;11.23;;;;;;;;;;4996138;28;20936;-72
2021/01/19 02:25:56;;;;;;;19.23;10.27;;;;;;;;;;5048553;28;20469;-72
2021/01/19 02:28:26;;;;;;;21.73;10.20;;;;;;;;;;5053277;28;20469;-72
2021/01/19 02:31:06;;;;;;;16.77;9.63;;;;;;;;;;5056457;28;20533;-72
2021/01/19 02:33:36;;;;;;;24.20;11.40;;;;;;;;;;5053725;28;20552;-72
2021/01/19 02:36:07;;;;;;;19.03;9.80;;;;;;;;;;5057966;28;20471;-73
2021/01/19 02:38:37;;;;;;;23.00;11.27;;;;;;;;;;5056969;28;20524;-72
2021/01/19 02:41:04;;;;;;;26.97;11.83;;;;;;;;;;5057728;28;20456;-72
2021/01/19 02:43:33;;;;;;;23.30;11.23;;;;;;;;;;5056730;28;20972;-73
2021/01/19 02:46:00;;;;;;;24.10;10.83;;;;;;;;;;5057548;28;20810;-72
2021/01/19 02:48:30;;;;;;;22.93;11.67;;;;;;;;;;5056012;28;20817;-72
2021/01/19 02:50:58;;;;;;;23.67;11.23;;;;;;;;;;5058057;28;20528;-72
2021/01/19 02:53:28;;;;;;;25.03;10.77;;;;;;;;;;5055954;28;21022;-72
2021/01/19 02:55:55;;;;;;;26.47;12.13;;;;;;;;;;5057583;28;20544;-72
2021/01/19 02:58:34;;;;;;;24.77;10.67;;;;;;;;;;5055535;28;20835;-72
2021/01/19 03:01:03;;;;;;;22.70;10.83;;;;;;;;;;5057064;28;20531;-72
2021/01/19 03:03:33;;;;;;;23.13;10.93;;;;;;;;;;5057683;28;20964;-72
2021/01/19 03:06:03;;;;;;;27.57;11.27;;;;;;;;;;5056907;28;20485;-72
2021/01/19 03:08:33;;;;;;;23.37;10.53;;;;;;;;;;5056261;28;20457;-71
2021/01/19 03:11:05;;;;;;;24.23;12.43;;;;;;;;;;5056975;28;20453;-71
2021/01/19 03:13:51;;;;;;;26.60;12.07;;;;;;;;;;5057516;28;20970;-71
2021/01/19 03:16:20;;;;;;;28.23;12.77;;;;;;;;;;5056696;28;20536;-72
2021/01/19 03:18:47;;;;;;;28.57;12.27;;;;;;;;;;5055029;28;21010;-72
2021/01/19 03:21:15;;;;;;;26.47;11.40;;;;;;;;;;5057471;28;20472;-72
2021/01/19 03:23:42;;;;;;;24.13;10.47;;;;;;;;;;5057026;28;20461;-72
2021/01/19 03:26:09;;;;;;;27.60;12.47;;;;;;;;;;5057636;28;20466;-73
2021/01/19 03:28:37;;;;;;;27.13;12.43;;;;;;;;;;5056283;28;20457;-73
2021/01/19 03:31:04;;;;;;;22.17;10.83;;;;;;;;;;5056935;28;20942;-72
2021/01/19 03:33:32;;;;;;;24.13;11.27;;;;;;;;;;5057228;28;20468;-72
2021/01/19 03:35:59;;;;;;;22.53;10.57;;;;;;;;;;5056641;28;20903;-73
2021/01/19 03:38:27;;;;;;;22.80;10.83;;;;;;;;;;5056229;28;20919;-72
2021/01/19 03:40:54;;;;;;;21.47;9.40;;;;;;;;;;5057368;28;21015;-72
2021/01/19 03:43:21;;;;;;;23.47;9.40;;;;;;;;;;5055597;28;20461;-72
2021/01/19 03:45:48;;;;;;;35.53;10.50;;;;;;;;;;5057326;28;20454;-72
2021/01/19 03:48:15;;;;;;;26.60;10.13;;;;;;;;;;5048604;28;21007;-70
2021/01/19 03:50:42;;;;;;;22.23;10.77;;;;;;;;;;5057188;28;20437;-70
2021/01/19 03:53:09;;;;;;;22.07;9.97;;;;;;;;;;5056566;28;20467;-70
2021/01/19 03:55:36;;;;;;;22.37;10.20;;;;;;;;;;5056865;28;20697;-70
2021/01/19 03:58:03;;;;;;;20.90;9.77;;;;;;;;;;5055234;28;20510;-70
2021/01/19 04:00:31;;;;;;;23.10;9.67;;;;;;;;;;5058080;28;20458;-70
2021/01/19 04:02:58;;;;;;;27.70;11.03;;;;;;;;;;5060826;28;20994;-70
2021/01/19 04:05:25;;;;;;;21.70;9.90;;;;;;;;;;5060145;28;20533;-70
2021/01/19 04:07:52;;;;;;;27.27;10.50;;;;;;;;;;5059437;28;20461;-70
2021/01/19 04:10:19;;;;;;;19.57;10.10;;;;;;;;;;5060474;28;20460;-70
2021/01/19 04:12:47;;;;;;;25.20;10.63;;;;;;;;;;5058358;28;20442;-70
2021/01/19 04:15:14;;;;;;;19.33;10.50;;;;;;;;;;5060459;28;20568;-69
2021/01/19 04:17:42;;;;;;;19.27;9.83;;;;;;;;;;5059190;28;20476;-70
2021/01/19 04:20:09;;;;;;;17.07;8.97;;;;;;;;;;5060901;28;20480;-70
2021/01/19 04:22:36;;;;;;;22.33;10.03;;;;;;;;;;5059992;28;20461;-69
2021/01/19 04:25:04;;;;;;;21.07;10.63;;;;;;;;;;5059916;28;20553;-70
2021/01/19 04:27:31;;;;;;;23.17;10.23;;;;;;;;;;5058377;28;20461;-70
2021/01/19 04:30:03;;;;;;;23.07;10.57;;;;;;;;;;5059781;28;20461;-70
2021/01/19 04:32:30;;;;;;;20.50;10.00;;;;;;;;;;5059561;28;20464;-69
2021/01/19 04:34:57;;;;;;;18.20;10.07;;;;;;;;;;5060423;28;20541;-70
2021/01/19 04:37:24;;;;;;;18.43;9.53;;;;;;;;;;5058407;28;20850;-69
2021/01/19 04:39:51;;;;;;;22.97;10.10;;;;;;;;;;5059278;28;20572;-70
2021/01/19 04:42:19;;;;;;;17.87;10.50;;;;;;;;;;5059805;28;20464;-69
2021/01/19 04:44:47;;;;;;;24.27;10.03;;;;;;;;;;5059319;28;20488;-69
2021/01/19 04:47:15;;;;;;;18.63;9.90;;;;;;;;;;5060151;28;20449;-70
2021/01/19 04:49:44;;;;;;;19.17;10.30;;;;;;;;;;5059423;28;20560;-70
2021/01/19 04:52:13;;;;;;;25.93;12.77;;;;;;;;;;5060207;28;20454;-70
2021/01/19 04:54:46;;;;;;;22.70;11.17;;;;;;;;;;5057313;28;20560;-70
2021/01/19 04:57:19;;;;;;;23.83;11.33;;;;;;;;;;5059703;28;20449;-70
2021/01/19 04:59:51;;;;;;;24.07;11.13;;;;;;;;;;5057242;28;20528;-70
2021/01/19 05:02:52;;;;;;;19.43;9.27;;;;;;;;;;5059124;28;20454;-70
2021/01/19 05:05:31;;;;;;;15.03;8.73;;;;;;;;;;5058766;28;20481;-70
2021/01/19 05:08:10;;;;;;;21.90;10.53;;;;;;;;;;5059408;28;20537;-70
2021/01/19 05:10:37;;;;;;;20.23;10.43;;;;;;;;;;5058815;28;20790;-69
2021/01/19 05:13:08;;;;;;;18.50;10.37;;;;;;;;;;5057916;28;20453;-70
2021/01/19 05:15:41;;;;;;;23.27;11.33;;;;;;;;;;5058634;28;20568;-70
2021/01/19 05:18:09;;;;;;;20.33;10.60;;;;;;;;;;5058468;28;20519;-71
2021/01/19 05:20:43;;;;;;;21.03;10.07;;;;;;;;;;5059475;28;20450;-70
2021/01/19 05:23:12;;;;;;;16.00;9.03;;;;;;;;;;5058609;28;20547;-70
2021/01/19 05:25:39;;;;;;;19.73;8.77;;;;;;;;;;5058089;28;21003;-70
2021/01/19 05:28:06;;;;;;;17.47;9.67;;;;;;;;;;5057999;28;20497;-70
2021/01/19 05:30:34;;;;;;;17.50;8.77;;;;;;;;;;5059158;28;20548;-70
2021/01/19 05:33:01;;;;;;;17.10;10.43;;;;;;;;;;5059638;28;20453;-70
2021/01/19 05:35:28;;;;;;;18.27;10.00;;;;;;;;;;5060098;28;20481;-70
2021/01/19 05:37:57;;;;;;;16.67;9.90;;;;;;;;;;5059910;28;20481;-70
2021/01/19 05:40:24;;;;;;;20.43;11.43;;;;;;;;;;5060258;28;20484;-70
2021/01/19 05:42:51;;;;;;;21.37;11.10;;;;;;;;;;5058537;28;20548;-70
2021/01/19 05:45:18;;;;;;;15.13;8.67;;;;;;;;;;5058860;28;20477;-70
2021/01/19 05:47:46;;;;;;;18.47;10.67;;;;;;;;;;5044809;28;20878;-71
2021/01/19 05:50:13;;;;;;;19.93;11.37;;;;;;;;;;5056923;28;20543;-71
2021/01/19 05:52:41;;;;;;;16.37;10.00;;;;;;;;;;5057835;28;20460;-70
2021/01/19 05:55:10;;;;;;;20.77;10.70;;;;;;;;;;5057569;28;20477;-70
2021/01/19 05:57:37;;;;;;;19.67;10.87;;;;;;;;;;5056739;28;20580;-70
2021/01/19 06:00:05;;;;;;;21.67;12.03;;;;;;;;;;5056670;28;20536;-70
2021/01/19 06:02:36;;;;;;;20.47;10.40;;;;;;;;;;5057664;28;20485;-70
2021/01/19 06:05:07;;;;;;;22.37;9.90;;;;;;;;;;5057035;28;20481;-71
2021/01/19 06:07:34;;;;;;;19.43;9.90;;;;;;;;;;5056344;28;20810;-70
2021/01/19 06:10:07;;;;;;;18.13;10.03;;;;;;;;;;5057892;28;20445;-70
2021/01/19 06:12:36;;;;;;;24.53;11.77;;;;;;;;;;5057077;28;20453;-70
2021/01/19 06:15:03;;;;;;;24.30;12.47;;;;;;;;;;5053450;28;20928;-70
2021/01/19 06:17:30;;;;;;;21.40;10.90;;;;;;;;;;5057896;28;20467;-69
2021/01/19 06:19:58;;;;;;;17.47;10.63;;;;;;;;;;5056911;28;20549;-69
2021/01/19 06:22:26;;;;;;;18.80;10.73;;;;;;;;;;5057737;28;20528;-69
2021/01/19 06:24:53;;;;;;;20.30;10.70;;;;;;;;;;5054066;28;20485;-69
2021/01/19 06:27:27;;;;;;;26.60;13.03;;;;;;;;;;5056326;28;20465;-69
2021/01/19 06:30:08;;;;;;;24.47;12.63;;;;;;;;;;5051900;28;20464;-69
2021/01/19 06:32:36;;;;;;;27.27;12.80;;;;;;;;;;5055885;28;20516;-69
2021/01/19 06:35:09;;;;;;;25.63;12.20;;;;;;;;;;5055408;28;20992;-69
2021/01/19 06:37:37;;;;;;;23.33;12.40;;;;;;;;;;5054923;28;20445;-69
2021/01/19 06:40:05;;;;;;;21.83;12.80;;;;;;;;;;5056171;28;20584;-69
2021/01/19 06:42:36;;;;;;;26.00;12.73;;;;;;;;;;5055374;28;21011;-69
2021/01/19 06:45:05;;;;;;;27.80;13.33;;;;;;;;;;5053064;28;20476;-68
2021/01/19 06:47:36;;;;;;;25.67;12.77;;;;;;;;;;5056892;28;20524;-68
2021/01/19 06:50:06;;;;;;;28.23;11.87;;;;;;;;;;5057017;28;20441;-69
2021/01/19 06:52:37;;;;;;;28.23;13.60;;;;;;;;;;5056896;28;20855;-69
2021/01/19 06:55:22;;;;;;;20.90;10.67;;;;;;;;;;5056183;28;20461;-69
2021/01/19 06:58:04;;;;;;;21.80;11.80;;;;;;;;;;5056060;28;20843;-69
2021/01/19 07:00:37;;;;;;;24.97;12.57;;;;;;;;;;5054089;28;20484;-69
2021/01/19 07:03:17;;;;;;;21.63;13.07;;;;;;;;;;5053134;28;20468;-70
2021/01/19 07:05:49;;;;;;;27.43;12.53;;;;;;;;;;5055969;28;20469;-71
2021/01/19 07:08:25;;;;;;;24.77;12.20;;;;;;;;;;5056648;28;20488;-71
2021/01/19 07:10:57;;;;;;;29.93;14.00;;;;;;;;;;5056459;28;20448;-70
2021/01/19 07:13:24;;;;;;;24.13;13.67;;;;;;;;;;5056946;28;20450;-70
2021/01/19 07:16:07;;;;;;;27.50;13.97;;;;;;;;;;5056729;28;20496;-70
2021/01/19 07:18:48;;;;;;;27.87;13.00;;;;;;;;;;5056553;28;20553;-70
2021/01/19 07:21:15;;;;;;;21.07;13.10;;;;;;;;;;5056504;28;20437;-71
2021/01/19 07:23:59;;;;;;;24.47;12.70;;;;;;;;;;5056368;28;20941;-70
2021/01/19 07:26:32;;;;;;;25.03;13.43;;;;;;;;;;5049382;28;20449;-70
2021/01/19 07:28:59;;;;;;;28.10;13.07;;;;;;;;;;5056384;28;20441;-70
2021/01/19 07:31:26;;;;;;;27.73;14.03;;;;;;;;;;5056509;28;20477;-72
2021/01/19 07:33:55;;;;;;;28.40;15.00;;;;;;;;;;5056686;28;20442;-70
2021/01/19 07:36:22;;;;;;;28.07;13.07;;;;;;;;;;5059764;28;20485;-70
2021/01/19 07:38:53;;;;;;;32.07;14.53;;;;;;;;;;5060300;28;20493;-71
2021/01/19 07:41:26;;;;;;;22.20;11.57;;;;;;;;;;5059885;28;20543;-72
2021/01/19 07:43:53;;;;;;;23.00;12.10;;;;;;;;;;5060436;28;20452;-72
2021/01/19 07:46:38;;;;;;;19.53;11.37;;;;;;;;;;5057376;28;20457;-72
2021/01/19 07:49:07;;;;;;;21.27;11.87;;;;;;;;;;5060227;28;20469;-72
2021/01/19 07:51:43;;;;;;;26.03;13.30;;;;;;;;;;5060336;28;20438;-71
2021/01/19 07:54:10;;;;;;;19.80;11.30;;;;;;;;;;5059359;28;20479;-71
2021/01/19 07:56:37;;;;;;;22.57;11.37;;;;;;;;;;5058483;28;21003;-72
2021/01/19 07:59:14;;;;;;;17.00;9.80;;;;;;;;;;5059629;28;20477;-71
2021/01/19 08:01:41;;;;;;;27.23;13.20;;;;;;;;;;5054398;28;20460;-70
2021/01/19 08:04:10;;;;;;;24.33;12.07;;;;;;;;;;5058976;28;20446;-73
2021/01/19 08:06:38;;;;;;;20.80;11.07;;;;;;;;;;5059104;28;20932;-72
2021/01/19 08:09:11;;;;;;;24.50;12.13;;;;;;;;;;5059349;28;20963;-71
2021/01/19 08:11:38;;;;;;;22.00;11.60;;;;;;;;;;5057836;28;20521;-72
2021/01/19 08:14:14;;;;;;;19.73;9.90;;;;;;;;;;5056455;28;20481;-71
2021/01/19 08:16:42;;;;;;;17.63;10.63;;;;;;;;;;5044880;28;20922;-71
2021/01/19 08:19:12;;;;;;;21.43;11.13;;;;;;;;;;5058238;28;21000;-71
2021/01/19 08:21:47;;;;;;;23.33;12.30;;;;;;;;;;5059292;28;20508;-71
2021/01/19 08:24:14;;;;;;;24.23;14.30;;;;;;;;;;5059094;28;21051;-71
2021/01/19 08:26:43;;;;;;;28.50;16.30;;;;;;;;;;5059188;28;20446;-71
2021/01/19 08:29:18;;;;;;;24.07;12.30;;;;;;;;;;5059198;28;20447;-71
2021/01/19 08:31:51;;;;;;;30.83;13.57;;;;;;;;;;5059369;28;20481;-72
2021/01/19 08:34:19;;;;;;;25.03;12.17;;;;;;;;;;5059388;28;20494;-73
2021/01/19 08:36:47;;;;;;;23.47;14.33;;;;;;;;;;5059136;28;20442;-72
2021/01/19 08:39:15;;;;;;;25.20;12.93;;;;;;;;;;5059884;28;20929;-72
2021/01/19 08:41:43;;;;;;;25.93;14.00;;;;;;;;;;5054561;28;20976;-72
2021/01/19 08:44:11;;;;;;;20.87;11.43;;;;;;;;;;5059612;28;20527;-72
2021/01/19 08:46:39;;;;;;;22.97;11.53;;;;;;;;;;5059554;28;20446;-72
2021/01/19 08:49:07;;;;;;;23.93;11.70;;;;;;;;;;5059137;28;20437;-72
2021/01/19 08:51:36;;;;;;;28.83;12.47;;;;;;;;;;5059501;28;20476;-72
2021/01/19 08:54:08;;;;;;;27.20;13.30;;;;;;;;;;5059266;28;20477;-71
2021/01/19 08:56:38;;;;;;;22.20;11.70;;;;;;;;;;5057871;28;20446;-71
2021/01/19 08:59:05;;;;;;;20.20;11.67;;;;;;;;;;5059870;28;20556;-72
2021/01/19 09:01:33;;;;;;;20.57;11.50;;;;;;;;;;5058439;28;20485;-73
2021/01/19 09:04:01;;;;;;;19.27;11.20;;;;;;;;;;5060422;28;20492;-72
2021/01/19 09:06:28;;;;;;;16.03;10.90;;;;;;;;;;5059718;28;20454;-72
2021/01/19 09:08:58;;;;;;;15.93;9.37;;;;;;;;;;5058837;28;20445;-72
2021/01/19 09:11:27;;;;;;;20.57;10.47;;;;;;;;;;5058761;28;20515;-70
2021/01/19 09:14:00;;;;;;;18.73;11.23;;;;;;;;;;5058795;28;20483;-71
2021/01/19 09:16:30;;;;;;;19.80;10.67;;;;;;;;;;5057360;28;20453;-72
2021/01/19 09:18:59;;;;;;;22.20;10.90;;;;;;;;;;5058762;28;20552;-71
2021/01/19 09:21:27;;;;;;;16.80;9.57;;;;;;;;;;5058845;28;20449;-71
2021/01/19 09:23:55;;;;;;;16.43;10.07;;;;;;;;;;5058818;28;20540;-71
2021/01/19 09:26:23;;;;;;;15.93;9.80;;;;;;;;;;5059111;28;20507;-71
2021/01/19 09:28:50;;;;;;;13.67;8.53;;;;;;;;;;5058793;28;20507;-69
2021/01/19 09:31:19;;;;;;;16.03;9.70;;;;;;;;;;5054971;28;20439;-71
2021/01/19 09:33:47;;;;;;;13.20;8.97;;;;;;;;;;5058575;28;20505;-70
2021/01/19 09:36:15;;;;;;;14.70;8.80;;;;;;;;;;5058290;28;20933;-71
2021/01/19 09:38:43;;;;;;;19.13;9.10;;;;;;;;;;5057883;28;21096;-72
2021/01/19 09:41:14;;;;;;;16.57;9.20;;;;;;;;;;5056695;28;20528;-71
2021/01/19 09:43:46;;;;;;;18.37;8.87;;;;;;;;;;5058242;28;20513;-73
2021/01/19 09:46:13;;;;;;;13.73;8.43;;;;;;;;;;5057365;28;20532;-70
2021/01/19 09:48:46;;;;;;;11.47;7.57;;;;;;;;;;5057428;28;20430;-72
2021/01/19 09:51:13;;;;;;;14.13;8.20;;;;;;;;;;5057147;28;20445;-73
2021/01/19 09:53:41;;;;;;;14.40;8.00;;;;;;;;;;5058044;28;20445;-72
2021/01/19 09:56:14;;;;;;;12.20;6.97;;;;;;;;;;5054661;28;20467;-72
2021/01/19 09:58:42;;;;;;;10.20;6.70;;;;;;;;;;5057401;28;20499;-72
2021/01/19 10:01:09;;;;;;;9.50;7.03;;;;;;;;;;5057577;28;20459;-72
2021/01/19 10:03:37;;;;;;;12.47;7.20;;;;;;;;;;5057940;28;20445;-72
2021/01/19 10:06:05;;;;;;;21.07;8.17;;;;;;;;;;5057292;28;20461;-72
2021/01/19 10:08:32;;;;;;;15.63;8.20;;;;;;;;;;5057819;28;20456;-72
2021/01/19 10:10:59;;;;;;;9.47;6.80;;;;;;;;;;5056975;28;20816;-72
2021/01/19 10:13:28;;;;;;;11.80;7.23;;;;;;;;;;5057795;28;20449;-72
2021/01/19 10:16:08;;;;;;;16.97;8.13;;;;;;;;;;5057246;28;20493;-72
2021/01/19 10:18:36;;;;;;;17.07;8.17;;;;;;;;;;5057384;28;20516;-72
2021/01/19 10:21:03;;;;;;;12.30;7.30;;;;;;;;;;5057207;28;20473;-72
2021/01/19 10:23:31;;;;;;;13.53;7.40;;;;;;;;;;5051248;28;20450;-72
2021/01/19 10:26:08;;;;;;;14.73;8.23;;;;;;;;;;5056783;28;20456;-72
2021/01/19 10:28:40;;;;;;;15.87;8.47;;;;;;;;;;5052718;28;20473;-72
2021/01/19 10:31:18;;;;;;;11.97;7.37;;;;;;;;;;5057055;28;20469;-72
2021/01/19 10:33:55;;;;;;;13.63;7.70;;;;;;;;;;5057209;28;20441;-72
2021/01/19 10:36:23;;;;;;;10.40;7.00;;;;;;;;;;5056527;28;20502;-72
2021/01/19 10:38:51;;;;;;;12.87;7.40;;;;;;;;;;5056647;28;20539;-72
2021/01/19 10:41:27;;;;;;;8.23;6.37;;;;;;;;;;5056846;28;20449;-72
2021/01/19 10:43:56;;;;;;;11.60;7.20;;;;;;;;;;5056879;28;20484;-71
2021/01/19 10:46:24;;;;;;;12.10;7.33;;;;;;;;;;5057106;28;20469;-73
2021/01/19 10:49:01;;;;;;;10.90;7.03;;;;;;;;;;5056816;28;20532;-71
2021/01/19 10:51:28;;;;;;;12.87;6.80;;;;;;;;;;5053396;28;20476;-70
2021/01/19 10:54:11;;;;;;;13.43;7.43;;;;;;;;;;5056839;28;20921;-71
2021/01/19 10:56:39;;;;;;;19.23;6.97;;;;;;;;;;5056030;28;20473;-71
2021/01/19 10:59:06;;;;;;;17.43;6.53;;;;;;;;;;5056255;28;20822;-72
2021/01/19 11:01:34;;;;;;;12.67;7.40;;;;;;;;;;5053155;28;20995;-71
2021/01/19 11:04:02;;;;;;;12.07;7.87;;;;;;;;;;5056563;28;20960;-72
2021/01/19 11:06:30;;;;;;;12.40;7.67;;;;;;;;;;5055871;28;20461;-70
2021/01/19 11:08:57;;;;;;;12.00;7.87;;;;;;;;;;5050079;28;20624;-69
2021/01/19 11:11:25;;;;;;;15.00;9.43;;;;;;;;;;5044419;28;20458;-70
2021/01/19 11:13:52;;;;;;;13.77;7.87;;;;;;;;;;5054878;28;20515;-71
2021/01/19 11:16:19;;;;;;;14.23;8.60;;;;;;;;;;5053800;28;20456;-70
2021/01/19 11:18:47;;;;;;;18.07;8.67;;;;;;;;;;5052219;28;20523;-70
2021/01/19 11:21:14;;;;;;;13.50;8.00;;;;;;;;;;5056204;28;20445;-71
2021/01/19 11:23:41;;;;;;;13.20;7.93;;;;;;;;;;5053855;28;20203;-69
2021/01/19 11:26:09;;;;;;;14.27;9.33;;;;;;;;;;5055018;28;20480;-69
2021/01/19 11:28:36;;;;;;;15.00;8.73;;;;;;;;;;5055506;28;20461;-70
2021/01/19 11:31:03;;;;;;;13.87;8.00;;;;;;;;;;5054136;28;20449;-67
2021/01/19 11:33:32;;;;;;;13.53;8.33;;;;;;;;;;5056304;28;20529;-70
2021/01/19 11:36:00;;;;;;;16.80;8.83;;;;;;;;;;5054581;28;20544;-71
2021/01/19 11:38:27;;;;;;;17.73;8.53;;;;;;;;;;5056470;28;20477;-72
2021/01/19 11:40:54;;;;;;;13.77;8.63;;;;;;;;;;5054732;28;20480;-72
2021/01/19 11:43:21;;;;;;;11.50;7.73;;;;;;;;;;5052314;28;20561;-72
2021/01/19 11:45:47;;;;;;;15.90;8.43;;;;;;;;;;5053376;28;20698;-72
2021/01/19 11:48:14;;;;;;;12.93;7.70;;;;;;;;;;5056524;28;20218;-71
2021/01/19 11:50:42;;;;;;;12.63;7.93;;;;;;;;;;5055686;28;20489;-72
2021/01/19 11:53:10;;;;;;;12.73;7.17;;;;;;;;;;5054493;28;20549;-73
2021/01/19 11:55:36;;;;;;;12.40;7.80;;;;;;;;;;5055218;28;20470;-73
2021/01/19 11:58:03;;;;;;;11.17;7.47;;;;;;;;;;5054894;28;20459;-72
2021/01/19 12:00:30;;;;;;;13.73;7.73;;;;;;;;;;5051627;28;20493;-72
2021/01/19 12:02:58;;;;;;;13.47;7.87;;;;;;;;;;5056794;28;20218;-72
2021/01/19 12:05:26;;;;;;;12.70;8.23;;;;;;;;;;5056149;28;20481;-72
2021/01/19 12:07:53;;;;;;;12.53;7.10;;;;;;;;;;5055958;28;20434;-72
2021/01/19 12:10:22;;;;;;;9.80;7.03;;;;;;;;;;5056047;28;20210;-72
2021/01/19 12:12:49;;;;;;;12.20;7.10;;;;;;;;;;5056159;28;20447;-72
2021/01/19 12:15:20;;;;;;;11.80;6.30;;;;;;;;;;5056208;28;20235;-73
2021/01/19 12:17:47;;;;;;;12.43;6.97;;;;;;;;;;5056029;28;20575;-72
2021/01/19 12:20:15;;;;;;;10.73;6.97;;;;;;;;;;5056502;28;20547;-72
2021/01/19 12:22:42;;;;;;;8.67;6.00;;;;;;;;;;5059551;28;20631;-72
2021/01/19 12:25:09;;;;;;;10.17;6.37;;;;;;;;;;5059229;28;20488;-72
2021/01/19 12:27:37;;;;;;;9.77;6.67;;;;;;;;;;5059583;28;20552;-71
2021/01/19 12:30:06;;;;;;;14.70;7.33;;;;;;;;;;5059664;28;20968;-72
2021/01/19 12:32:36;;;;;;;13.57;6.80;;;;;;;;;;5059482;28;20444;-73
2021/01/19 12:35:04;;;;;;;12.60;6.90;;;;;;;;;;5059588;28;20465;-72
2021/01/19 12:37:31;;;;;;;10.93;6.67;;;;;;;;;;5059044;28;20205;-72
2021/01/19 12:39:58;;;;;;;12.27;6.60;;;;;;;;;;5057440;28;21037;-72
2021/01/19 12:42:26;;;;;;;10.53;7.17;;;;;;;;;;5057759;28;20205;-72
2021/01/19 12:44:55;;;;;;;11.30;7.17;;;;;;;;;;5058703;28;20223;-73
2021/01/19 12:47:22;;;;;;;12.07;6.77;;;;;;;;;;5059160;28;20256;-72
2021/01/19 12:49:50;;;;;;;10.83;7.10;;;;;;;;;;5059082;28;20808;-72
2021/01/19 12:52:17;;;;;;;11.93;7.27;;;;;;;;;;5051212;28;20203;-72
2021/01/19 12:54:44;;;;;;;12.33;7.63;;;;;;;;;;5058747;28;20234;-72
2021/01/19 12:57:13;;;;;;;15.93;7.80;;;;;;;;;;5051080;28;20265;-73
2021/01/19 12:59:40;;;;;;;12.90;7.90;;;;;;;;;;5059115;28;20231;-73
2021/01/19 13:02:09;;;;;;;12.63;7.70;;;;;;;;;;5059220;28;20207;-72
2021/01/19 13:04:37;;;;;;;10.33;6.73;;;;;;;;;;5058882;28;20231;-72
2021/01/19 13:07:05;;;;;;;12.63;7.20;;;;;;;;;;5058912;28;20264;-72
2021/01/19 13:09:32;;;;;;;11.43;6.90;;;;;;;;;;5058781;28;20199;-72
2021/01/19 13:11:59;;;;;;;13.57;7.97;;;;;;;;;;5058467;28;20207;-72
2021/01/19 13:14:27;;;;;;;13.13;7.80;;;;;;;;;;5058746;28;21003;-72
2021/01/19 13:16:57;;;;;;;10.63;7.33;;;;;;;;;;5055546;28;20234;-72
2021/01/19 13:19:26;;;;;;;14.60;10.30;;;;;;;;;;5058471;28;20231;-72
2021/01/19 13:21:57;;;;;;;12.87;7.70;;;;;;;;;;5058326;28;20226;-70
2021/01/19 13:24:24;;;;;;;11.17;6.80;;;;;;;;;;5058460;28;20249;-71
2021/01/19 13:26:51;;;;;;;10.53;7.13;;;;;;;;;;5058359;28;20289;-71
2021/01/19 13:29:18;;;;;;;7.70;6.63;;;;;;;;;;5058309;28;20207;-71
2021/01/19 13:31:45;;;;;;;11.43;7.27;;;;;;;;;;5057690;28;20245;-71
2021/01/19 13:34:13;;;;;;;8.33;7.43;;;;;;;;;;5058295;28;20227;-71
2021/01/19 13:36:42;;;;;;;10.93;6.57;;;;;;;;;;5057878;28;20643;-71
2021/01/19 13:39:09;;;;;;;11.77;8.13;;;;;;;;;;5057965;28;20602;-71
2021/01/19 13:41:36;;;;;;;10.20;7.27;;;;;;;;;;5057639;28;20207;-71
2021/01/19 13:44:03;;;;;;;11.17;7.40;;;;;;;;;;5058439;28;20293;-71
2021/01/19 13:46:31;;;;;;;9.33;6.53;;;;;;;;;;5057752;28;20277;-73
2021/01/19 13:49:00;;;;;;;9.97;7.10;;;;;;;;;;5058078;28;20203;-72
2021/01/19 13:51:28;;;;;;;10.63;7.33;;;;;;;;;;5057999;28;20256;-72
2021/01/19 13:53:56;;;;;;;14.00;6.57;;;;;;;;;;5058228;28;20199;-71
2021/01/19 13:56:24;;;;;;;11.27;6.57;;;;;;;;;;5056612;28;20241;-70
2021/01/19 13:58:51;;;;;;;9.53;5.20;;;;;;;;;;5058219;28;20211;-70
2021/01/19 14:01:18;;;;;;;12.53;5.63;;;;;;;;;;5057572;28;20252;-71
2021/01/19 14:03:45;;;;;;;8.00;5.80;;;;;;;;;;5057980;28;20238;-72
2021/01/19 14:06:16;;;;;;;10.07;5.83;;;;;;;;;;5057595;28;20249;-72
2021/01/19 14:08:43;;;;;;;7.67;4.80;;;;;;;;;;5054236;28;20222;-71
2021/01/19 14:11:12;;;;;;;9.23;5.10;;;;;;;;;;5057397;28;20210;-72
2021/01/19 14:13:39;;;;;;;9.20;4.90;;;;;;;;;;5057551;28;20285;-72
2021/01/19 14:16:06;;;;;;;7.90;5.50;;;;;;;;;;5057661;28;20698;-72
2021/01/19 14:18:33;;;;;;;8.40;5.07;;;;;;;;;;5057284;28;20206;-71
2021/01/19 14:21:00;;;;;;;10.83;5.40;;;;;;;;;;5057717;28;20321;-71
2021/01/19 14:23:28;;;;;;;6.40;4.70;;;;;;;;;;5056734;28;20206;-71
2021/01/19 14:25:55;;;;;;;7.03;4.53;;;;;;;;;;5057223;28;20314;-71
2021/01/19 14:28:23;;;;;;;5.97;4.87;;;;;;;;;;5056988;28;20201;-71
2021/01/19 14:30:50;;;;;;;7.70;4.57;;;;;;;;;;5057305;28;20684;-70
2021/01/19 14:33:17;;;;;;;8.47;5.10;;;;;;;;;;5057002;28;20281;-71
2021/01/19 14:35:44;;;;;;;8.30;4.67;;;;;;;;;;5057058;28;20226;-71